Time;durP1;ratioP1;P1;durP2;ratioP2;P2;SDS_P1;SDS_P2;PMS_P1;PMS_P2;Temp;Humidity;BMP_temperature;BMP_pressure;BME280_temperature;BME280_humidity;BME280_pressure;Samples;Min_cycle;Max_cycle;Signal;HPM_P1;HPM_P2
2023/11/23 00:02:05;;;;;;;;;;;6.30;99.90;;;;;;5013890;28;19916;-75
2023/11/23 00:04:31;;;;;;;;;;;6.40;99.90;;;;;;5014241;28;19921;-75
2023/11/23 00:06:57;;;;;;;;;;;6.40;99.90;;;;;;5014512;28;20000;-75
2023/11/23 00:09:24;;;;;;;;;;;6.40;99.90;;;;;;5010540;28;19941;-76
2023/11/23 00:11:49;;;;;;;;;;;6.40;99.90;;;;;;5008373;28;19913;-74
2023/11/23 00:14:15;;;;;;;;;;;6.30;99.90;;;;;;5014077;28;19924;-76
2023/11/23 00:16:43;;;;;;;;;;;6.30;99.90;;;;;;5014240;28;19920;-75
2023/11/23 00:19:09;;;;;;;;;;;6.30;99.90;;;;;;5014297;28;19924;-75
2023/11/23 00:21:35;;;;;;;;;;;6.30;99.90;;;;;;5014151;28;19910;-77
2023/11/23 00:24:00;;;;;;;;;;;6.30;99.90;;;;;;5013907;28;19921;-75
2023/11/23 00:26:26;;;;;;;;;;;6.30;99.90;;;;;;5014856;28;20393;-75
2023/11/23 00:28:51;;;;;;;;;;;6.30;99.90;;;;;;5013928;28;19917;-74
2023/11/23 00:31:17;;;;;;;;;;;6.30;99.90;;;;;;5014161;28;19921;-75
2023/11/23 00:33:42;;;;;;;;;;;6.40;99.90;;;;;;5013874;28;19959;-74
2023/11/23 00:36:08;;;;;;;;;;;6.40;99.90;;;;;;5014079;28;19909;-75
2023/11/23 00:38:34;;;;;;;;;;;6.40;99.90;;;;;;5014030;28;19951;-74
2023/11/23 00:41:00;;;;;;;;;;;6.50;99.90;;;;;;5013745;28;19944;-76
2023/11/23 00:43:26;;;;;;;;;;;6.50;99.90;;;;;;5014168;28;19910;-75
2023/11/23 00:45:51;;;;;;;;;;;6.50;99.90;;;;;;5013798;28;20004;-75
2023/11/23 00:48:17;;;;;;;;;;;6.50;99.90;;;;;;5013559;28;20273;-75
2023/11/23 00:50:42;;;;;;;;;;;6.60;99.90;;;;;;5013642;28;19983;-76
2023/11/23 00:53:08;;;;;;;;;;;6.60;99.90;;;;;;5013565;28;19994;-75
2023/11/23 00:55:33;;;;;;;;;;;6.60;99.90;;;;;;5013628;28;19909;-75
2023/11/23 00:57:59;;;;;;;;;;;6.60;99.90;;;;;;5013358;28;19909;-75
2023/11/23 01:00:24;;;;;;;;;;;6.60;99.90;;;;;;5013693;28;19968;-75
2023/11/23 01:02:51;;;;;;;;;;;6.60;99.90;;;;;;5012497;28;20017;-75
2023/11/23 01:05:18;;;;;;;;;;;6.60;99.90;;;;;;5013472;28;19913;-75
2023/11/23 01:07:44;;;;;;;;;;;6.60;99.90;;;;;;5013669;28;19909;-75
2023/11/23 01:10:10;;;;;;;;;;;6.60;99.90;;;;;;5006257;28;19977;-75
2023/11/23 01:12:35;;;;;;;;;;;6.60;99.90;;;;;;5012188;28;20296;-77
2023/11/23 01:15:02;;;;;;;;;;;6.60;99.90;;;;;;5012520;28;19916;-74
2023/11/23 01:17:27;;;;;;;;;;;6.60;99.90;;;;;;5013374;28;19956;-76
2023/11/23 01:19:53;;;;;;;;;;;6.60;99.90;;;;;;5013292;28;19949;-74
2023/11/23 01:22:18;;;;;;;;;;;6.50;99.90;;;;;;5012831;28;19917;-74
2023/11/23 01:24:44;;;;;;;;;;;6.50;99.90;;;;;;5017182;28;20411;-75
2023/11/23 01:27:10;;;;;;;;;;;6.60;99.90;;;;;;5017417;28;19910;-74
2023/11/23 01:29:35;;;;;;;;;;;6.50;99.90;;;;;;5017441;28;20004;-75
2023/11/23 01:32:01;;;;;;;;;;;6.50;99.90;;;;;;5016847;28;20347;-77
2023/11/23 01:34:26;;;;;;;;;;;6.40;99.90;;;;;;5017009;28;20278;-75
2023/11/23 01:36:52;;;;;;;;;;;6.40;99.90;;;;;;5017097;28;19917;-74
2023/11/23 01:39:18;;;;;;;;;;;6.30;99.90;;;;;;5017070;28;19932;-74
2023/11/23 01:41:43;;;;;;;;;;;6.30;99.90;;;;;;5017149;28;19910;-75
2023/11/23 01:44:10;;;;;;;;;;;6.20;99.90;;;;;;5016859;28;19913;-75
2023/11/23 01:46:36;;;;;;;;;;;6.20;99.90;;;;;;5016425;28;19918;-77
2023/11/23 01:49:02;;;;;;;;;;;6.20;99.90;;;;;;5016625;28;20430;-74
2023/11/23 01:51:28;;;;;;;;;;;6.10;99.90;;;;;;5016940;28;19964;-74
2023/11/23 01:53:53;;;;;;;;;;;6.10;99.90;;;;;;5016882;28;19910;-74
2023/11/23 01:56:21;;;;;;;;;;;6.10;99.90;;;;;;5015554;28;19968;-74
2023/11/23 01:58:47;;;;;;;;;;;6.10;99.90;;;;;;5016725;28;19988;-74
2023/11/23 02:01:12;;;;;;;;;;;6.10;99.90;;;;;;5016639;28;19909;-75
2023/11/23 02:03:38;;;;;;;;;;;6.10;99.90;;;;;;5016556;28;20260;-74
2023/11/23 02:06:04;;;;;;;;;;;6.10;99.90;;;;;;5016771;28;19913;-75
2023/11/23 02:08:29;;;;;;;;;;;6.10;99.90;;;;;;5016527;28;20435;-74
2023/11/23 02:10:56;;;;;;;;;;;6.00;99.90;;;;;;5007502;28;19921;-74
2023/11/23 02:13:22;;;;;;;;;;;6.00;99.90;;;;;;5015214;28;19997;-74
2023/11/23 02:15:47;;;;;;;;;;;6.00;99.90;;;;;;5016550;28;20400;-75
2023/11/23 02:18:13;;;;;;;;;;;6.00;99.90;;;;;;5016835;28;19924;-74
2023/11/23 02:20:39;;;;;;;;;;;6.00;99.90;;;;;;5016536;28;19914;-74
2023/11/23 02:23:05;;;;;;;;;;;6.00;99.90;;;;;;5016278;28;19947;-74
2023/11/23 02:25:31;;;;;;;;;;;5.90;99.90;;;;;;5016201;28;20008;-74
2023/11/23 02:27:56;;;;;;;;;;;5.90;99.90;;;;;;5016102;28;20268;-74
2023/11/23 02:30:22;;;;;;;;;;;5.90;99.90;;;;;;5016456;28;19999;-74
2023/11/23 02:32:48;;;;;;;;;;;5.80;99.90;;;;;;5016057;28;20459;-74
2023/11/23 02:35:13;;;;;;;;;;;5.80;99.90;;;;;;5015335;28;20373;-74
2023/11/23 02:37:42;;;;;;;;;;;5.80;99.90;;;;;;5015940;28;19996;-75
2023/11/23 02:40:08;;;;;;;;;;;5.80;99.90;;;;;;5015982;28;19910;-75
2023/11/23 02:42:33;;;;;;;;;;;5.80;99.90;;;;;;5014718;28;19913;-75
2023/11/23 02:44:59;;;;;;;;;;;5.80;99.90;;;;;;5015764;28;19920;-74
2023/11/23 02:47:24;;;;;;;;;;;5.80;99.90;;;;;;5015790;28;19921;-75
2023/11/23 02:49:50;;;;;;;;;;;5.90;99.90;;;;;;5015574;28;19933;-75
2023/11/23 02:52:15;;;;;;;;;;;5.80;99.90;;;;;;5015698;28;19913;-75
2023/11/23 02:54:41;;;;;;;;;;;5.90;99.90;;;;;;5015684;28;20004;-75
2023/11/23 02:57:06;;;;;;;;;;;5.90;99.90;;;;;;5014388;28;20269;-76
2023/11/23 02:59:32;;;;;;;;;;;5.80;99.90;;;;;;5015775;28;20007;-75
2023/11/23 03:01:57;;;;;;;;;;;5.80;99.90;;;;;;5015410;28;19910;-76
2023/11/23 03:04:23;;;;;;;;;;;5.80;99.90;;;;;;5014467;28;20012;-75
2023/11/23 03:06:48;;;;;;;;;;;5.80;99.90;;;;;;5015414;28;19956;-74
2023/11/23 03:09:14;;;;;;;;;;;5.80;99.90;;;;;;5013528;28;19909;-75
2023/11/23 03:11:40;;;;;;;;;;;5.80;99.90;;;;;;5009044;28;19913;-74
2023/11/23 03:14:06;;;;;;;;;;;5.80;99.90;;;;;;5015297;28;20346;-75
2023/11/23 03:16:32;;;;;;;;;;;5.80;99.90;;;;;;5015339;28;20004;-75
2023/11/23 03:18:58;;;;;;;;;;;5.70;99.90;;;;;;5015501;28;19913;-75
2023/11/23 03:21:24;;;;;;;;;;;5.70;99.90;;;;;;5015253;28;20384;-75
2023/11/23 03:23:50;;;;;;;;;;;5.70;99.90;;;;;;5015188;28;19909;-75
2023/11/23 03:26:16;;;;;;;;;;;5.70;99.90;;;;;;5014944;28;19918;-77
2023/11/23 03:28:42;;;;;;;;;;;5.70;99.90;;;;;;5015163;28;20365;-75
2023/11/23 03:31:07;;;;;;;;;;;5.70;99.90;;;;;;5015020;28;19967;-75
2023/11/23 03:33:33;;;;;;;;;;;5.70;99.90;;;;;;5014998;28;19916;-75
2023/11/23 03:35:59;;;;;;;;;;;5.70;99.90;;;;;;5015048;28;19910;-75
2023/11/23 03:38:24;;;;;;;;;;;5.70;99.90;;;;;;5014920;28;19916;-74
2023/11/23 03:40:50;;;;;;;;;;;5.70;99.90;;;;;;5014759;28;19972;-75
2023/11/23 03:43:15;;;;;;;;;;;5.70;99.90;;;;;;5015168;28;19921;-75
2023/11/23 03:45:41;;;;;;;;;;;5.70;99.90;;;;;;5009350;28;20358;-75
2023/11/23 03:48:06;;;;;;;;;;;5.70;99.90;;;;;;5011441;28;19910;-75
2023/11/23 03:50:33;;;;;;;;;;;5.70;99.90;;;;;;5014627;28;19909;-75
2023/11/23 03:52:58;;;;;;;;;;;5.70;99.90;;;;;;5014350;28;19910;-76
2023/11/23 03:55:24;;;;;;;;;;;5.60;99.90;;;;;;5014617;28;19917;-75
2023/11/23 03:57:49;;;;;;;;;;;5.70;99.90;;;;;;5014611;28;20373;-74
2023/11/23 04:00:21;;;;;;;;;;;5.60;99.90;;;;;;5014018;28;20008;-74
2023/11/23 04:02:46;;;;;;;;;;;5.60;99.90;;;;;;5013688;28;19959;-74
2023/11/23 04:05:17;;;;;;;;;;;5.60;99.90;;;;;;5014306;28;19917;-76
2023/11/23 04:07:43;;;;;;;;;;;5.60;99.90;;;;;;5014426;28;19913;-75
2023/11/23 04:10:09;;;;;;;;;;;5.50;99.90;;;;;;5008275;28;20008;-75
2023/11/23 04:12:35;;;;;;;;;;;5.50;99.90;;;;;;5012769;28;20295;-74
2023/11/23 04:15:00;;;;;;;;;;;5.50;99.90;;;;;;5014284;28;19916;-74
2023/11/23 04:17:26;;;;;;;;;;;5.40;99.90;;;;;;5014063;28;19913;-74
2023/11/23 04:19:54;;;;;;;;;;;5.40;99.90;;;;;;5014297;28;19914;-77
2023/11/23 04:22:23;;;;;;;;;;;5.40;99.90;;;;;;5014134;28;19909;-76
2023/11/23 04:24:48;;;;;;;;;;;5.30;99.90;;;;;;5014316;28;19960;-74
2023/11/23 04:27:14;;;;;;;;;;;5.30;99.90;;;;;;5013982;28;19960;-74
2023/11/23 04:29:39;;;;;;;;;;;5.30;99.90;;;;;;5013883;28;19996;-75
2023/11/23 04:32:06;;;;;;;;;;;5.30;99.90;;;;;;5028967;28;20019;-76
2023/11/23 04:34:32;;;;;;;;;;;5.30;99.90;;;;;;5013861;28;19909;-77
2023/11/23 04:36:57;;;;;;;;;;;5.30;99.90;;;;;;5014046;28;20411;-74
2023/11/23 04:39:23;;;;;;;;;;;5.30;99.90;;;;;;5013868;28;19910;-74
2023/11/23 04:41:48;;;;;;;;;;;5.30;99.90;;;;;;5013842;28;19979;-74
2023/11/23 04:44:15;;;;;;;;;;;5.40;99.90;;;;;;5013743;28;19924;-77
2023/11/23 04:46:41;;;;;;;;;;;5.40;99.90;;;;;;5012560;28;19909;-76
2023/11/23 04:49:09;;;;;;;;;;;5.40;99.90;;;;;;5013684;28;19988;-77
2023/11/23 04:51:34;;;;;;;;;;;5.40;99.90;;;;;;5013243;28;19916;-75
2023/11/23 04:54:00;;;;;;;;;;;5.50;99.90;;;;;;5012966;28;20386;-75
2023/11/23 04:56:26;;;;;;;;;;;5.50;99.90;;;;;;5000788;28;19910;-74
2023/11/23 04:58:51;;;;;;;;;;;5.50;99.90;;;;;;4993640;28;19910;-77
2023/11/23 05:01:17;;;;;;;;;;;5.60;99.90;;;;;;4994157;28;20053;-74
2023/11/23 05:03:42;;;;;;;;;;;5.60;99.90;;;;;;5005258;28;19914;-75
2023/11/23 05:06:08;;;;;;;;;;;5.60;99.90;;;;;;5009104;28;19996;-74
2023/11/23 05:08:34;;;;;;;;;;;5.60;99.90;;;;;;5005644;28;19918;-75
2023/11/23 05:11:00;;;;;;;;;;;5.50;99.90;;;;;;4998227;28;20453;-75
2023/11/23 05:13:25;;;;;;;;;;;5.50;99.90;;;;;;5009084;28;19917;-77
2023/11/23 05:15:51;;;;;;;;;;;5.50;99.90;;;;;;5009479;28;19964;-74
2023/11/23 05:18:16;;;;;;;;;;;5.40;99.90;;;;;;5009340;28;19932;-75
2023/11/23 05:20:42;;;;;;;;;;;5.40;99.90;;;;;;5009185;28;20325;-75
2023/11/23 05:23:07;;;;;;;;;;;5.40;99.90;;;;;;5009082;28;20231;-75
2023/11/23 05:25:33;;;;;;;;;;;5.30;99.90;;;;;;5023838;28;19917;-74
2023/11/23 05:27:59;;;;;;;;;;;5.40;99.90;;;;;;5008349;28;19924;-77
2023/11/23 05:30:25;;;;;;;;;;;5.30;99.90;;;;;;5008990;28;19931;-75
2023/11/23 05:32:50;;;;;;;;;;;5.30;99.90;;;;;;5008942;28;19921;-74
2023/11/23 05:35:16;;;;;;;;;;;5.20;99.90;;;;;;5008634;28;19977;-75
2023/11/23 05:37:41;;;;;;;;;;;5.20;99.90;;;;;;5008958;28;20001;-76
2023/11/23 05:40:15;;;;;;;;;;;5.20;99.90;;;;;;5008743;28;19910;-76
2023/11/23 05:42:41;;;;;;;;;;;5.20;99.90;;;;;;5009079;28;20026;-75
2023/11/23 05:45:08;;;;;;;;;;;5.10;99.90;;;;;;5009159;28;20392;-74
2023/11/23 05:47:34;;;;;;;;;;;5.10;99.90;;;;;;5003963;28;20408;-75
2023/11/23 05:50:01;;;;;;;;;;;5.20;99.90;;;;;;5005896;28;19921;-77
2023/11/23 05:52:30;;;;;;;;;;;5.10;99.90;;;;;;5008993;28;20511;-75
2023/11/23 05:54:55;;;;;;;;;;;5.10;99.90;;;;;;5023998;28;19955;-75
2023/11/23 05:57:21;;;;;;;;;;;5.00;99.90;;;;;;5003456;28;20369;-74
2023/11/23 05:59:47;;;;;;;;;;;5.10;99.90;;;;;;5000284;28;20411;-74
2023/11/23 06:02:12;;;;;;;;;;;5.00;99.90;;;;;;5008544;28;19936;-77
2023/11/23 06:04:38;;;;;;;;;;;5.10;99.90;;;;;;5008617;28;20373;-77
2023/11/23 06:07:06;;;;;;;;;;;5.00;99.90;;;;;;5011906;28;19952;-75
2023/11/23 06:09:31;;;;;;;;;;;5.10;99.90;;;;;;5010394;28;20274;-74
2023/11/23 06:11:57;;;;;;;;;;;5.00;99.90;;;;;;5011315;28;19921;-75
2023/11/23 06:14:22;;;;;;;;;;;5.00;99.90;;;;;;5016396;28;19921;-76
2023/11/23 06:16:49;;;;;;;;;;;5.00;99.90;;;;;;5016560;28;19917;-77
2023/11/23 06:19:15;;;;;;;;;;;5.00;99.90;;;;;;5016485;28;19917;-76
2023/11/23 06:21:40;;;;;;;;;;;5.00;99.90;;;;;;5016311;28;20360;-75
2023/11/23 06:24:06;;;;;;;;;;;5.00;99.90;;;;;;5016178;28;19913;-75
2023/11/23 06:26:32;;;;;;;;;;;5.00;99.90;;;;;;5016303;28;19964;-77
2023/11/23 06:28:57;;;;;;;;;;;5.00;99.90;;;;;;5016145;28;20392;-74
2023/11/23 06:31:23;;;;;;;;;;;5.00;99.90;;;;;;5016266;28;19987;-74
2023/11/23 06:33:48;;;;;;;;;;;5.00;99.90;;;;;;5012200;28;20000;-76
2023/11/23 06:36:15;;;;;;;;;;;5.00;99.90;;;;;;5014121;28;19920;-76
2023/11/23 06:38:41;;;;;;;;;;;5.00;99.90;;;;;;5015190;28;19972;-74
2023/11/23 06:41:18;;;;;;;;;;;5.00;99.90;;;;;;5012645;28;20278;-74
2023/11/23 06:43:44;;;;;;;;;;;5.00;99.90;;;;;;5009346;28;19910;-74
2023/11/23 06:46:09;;;;;;;;;;;5.10;99.90;;;;;;4996055;28;19965;-75
2023/11/23 06:48:35;;;;;;;;;;;5.10;99.90;;;;;;5006177;28;20355;-74
2023/11/23 06:51:02;;;;;;;;;;;5.10;99.90;;;;;;5015355;28;20005;-77
2023/11/23 06:53:28;;;;;;;;;;;5.20;99.90;;;;;;5015468;28;19909;-77
2023/11/23 06:55:54;;;;;;;;;;;5.10;99.90;;;;;;5006853;28;19913;-75
2023/11/23 06:58:21;;;;;;;;;;;5.30;99.90;;;;;;5008523;28;19920;-75
2023/11/23 07:00:46;;;;;;;;;;;5.40;99.90;;;;;;5015469;28;19914;-77
2023/11/23 07:03:12;;;;;;;;;;;5.50;99.90;;;;;;5014372;28;20281;-77
2023/11/23 07:05:37;;;;;;;;;;;5.60;99.90;;;;;;5014620;28;19960;-77
2023/11/23 07:08:03;;;;;;;;;;;5.70;99.90;;;;;;5014050;28;19959;-74
2023/11/23 07:10:29;;;;;;;;;;;5.80;99.90;;;;;;5010218;28;19913;-74
2023/11/23 07:12:54;;;;;;;;;;;5.90;99.90;;;;;;5030210;28;20388;-77
2023/11/23 07:15:23;;;;;;;;;;;6.00;99.90;;;;;;5010595;28;19953;-74
2023/11/23 07:17:49;;;;;;;;;;;6.10;99.90;;;;;;4997527;28;19925;-77
2023/11/23 07:20:15;;;;;;;;;;;6.10;99.90;;;;;;5009308;28;20578;-74
2023/11/23 07:22:40;;;;;;;;;;;6.20;99.90;;;;;;5013532;28;19920;-75
2023/11/23 07:25:09;;;;;;;;;;;6.20;99.90;;;;;;5006221;28;20020;-74
2023/11/23 07:27:35;;;;;;;;;;;6.30;99.90;;;;;;5009743;28;19914;-74
2023/11/23 07:30:02;;;;;;;;;;;6.30;99.90;;;;;;4995005;28;20288;-74
2023/11/23 07:32:27;;;;;;;;;;;6.40;99.90;;;;;;4994924;28;19944;-74
2023/11/23 07:34:53;;;;;;;;;;;6.50;99.90;;;;;;5012242;28;20357;-74
2023/11/23 07:37:19;;;;;;;;;;;6.50;99.90;;;;;;5002803;28;19925;-75
2023/11/23 07:39:47;;;;;;;;;;;6.50;99.90;;;;;;5011966;28;19914;-77
2023/11/23 07:42:12;;;;;;;;;;;6.50;99.90;;;;;;5010204;28;19918;-77
2023/11/23 07:44:38;;;;;;;;;;;6.60;99.90;;;;;;5009058;28;19922;-75
2023/11/23 07:47:03;;;;;;;;;;;6.60;99.90;;;;;;5004291;28;19917;-74
2023/11/23 07:49:29;;;;;;;;;;;6.70;99.90;;;;;;4996536;28;19918;-75
2023/11/23 07:51:55;;;;;;;;;;;6.80;99.90;;;;;;5002759;28;20304;-75
2023/11/23 07:54:20;;;;;;;;;;;6.80;99.90;;;;;;5006300;28;20016;-75
2023/11/23 07:56:46;;;;;;;;;;;6.80;99.90;;;;;;5001349;28;20296;-77
2023/11/23 07:59:12;;;;;;;;;;;6.90;99.90;;;;;;5002824;28;19925;-75
2023/11/23 08:01:37;;;;;;;;;;;7.00;99.90;;;;;;5001407;28;19917;-75
2023/11/23 08:04:03;;;;;;;;;;;7.10;99.90;;;;;;4998724;28;20431;-75
2023/11/23 08:06:28;;;;;;;;;;;7.10;99.90;;;;;;4995574;28;20000;-77
2023/11/23 08:08:54;;;;;;;;;;;7.20;99.90;;;;;;4998199;28;19913;-77
2023/11/23 08:11:21;;;;;;;;;;;7.20;99.90;;;;;;5006916;28;19913;-75
2023/11/23 08:13:46;;;;;;;;;;;7.40;99.90;;;;;;5006653;28;20017;-75
2023/11/23 08:16:12;;;;;;;;;;;7.40;99.90;;;;;;5008292;28;20012;-75
2023/11/23 08:18:37;;;;;;;;;;;7.50;99.90;;;;;;5003566;28;19917;-75
2023/11/23 08:21:04;;;;;;;;;;;7.70;99.90;;;;;;5001610;28;20003;-77
2023/11/23 08:23:30;;;;;;;;;;;7.80;99.90;;;;;;5003757;28;19917;-77
2023/11/23 08:25:55;;;;;;;;;;;7.80;99.90;;;;;;5009989;28;20020;-76
2023/11/23 08:28:21;;;;;;;;;;;7.80;99.90;;;;;;5008548;28;19913;-75
2023/11/23 08:30:47;;;;;;;;;;;7.90;99.90;;;;;;5007106;28;20024;-75
2023/11/23 08:33:13;;;;;;;;;;;8.00;99.90;;;;;;5006497;28;19979;-75
2023/11/23 08:35:38;;;;;;;;;;;8.10;99.90;;;;;;5009582;28;20307;-76
2023/11/23 08:38:05;;;;;;;;;;;8.10;99.90;;;;;;5007087;28;19917;-75
2023/11/23 08:40:30;;;;;;;;;;;8.20;99.90;;;;;;5007304;28;20004;-74
2023/11/23 08:42:56;;;;;;;;;;;8.20;99.90;;;;;;5009569;28;20004;-76
2023/11/23 08:45:21;;;;;;;;;;;8.30;99.90;;;;;;5009982;28;19983;-75
2023/11/23 08:47:47;;;;;;;;;;;8.30;99.90;;;;;;5009435;28;20388;-75
2023/11/23 08:50:13;;;;;;;;;;;8.30;99.90;;;;;;5003128;28;19925;-75
2023/11/23 08:52:39;;;;;;;;;;;8.40;99.90;;;;;;5007772;28;20296;-75
2023/11/23 08:55:08;;;;;;;;;;;8.50;99.90;;;;;;5000178;28;19917;-76
2023/11/23 08:57:35;;;;;;;;;;;8.60;99.90;;;;;;5006062;28;19921;-75
2023/11/23 09:00:02;;;;;;;;;;;8.70;99.90;;;;;;5010908;28;19918;-74
2023/11/23 09:02:28;;;;;;;;;;;8.90;99.90;;;;;;4995387;28;19975;-74
2023/11/23 09:04:53;;;;;;;;;;;9.00;99.90;;;;;;5010036;28;19917;-75
2023/11/23 09:07:20;;;;;;;;;;;9.10;99.90;;;;;;5012076;28;19924;-76
2023/11/23 09:09:46;;;;;;;;;;;9.20;99.90;;;;;;5000751;28;19928;-74
2023/11/23 09:12:12;;;;;;;;;;;9.30;99.90;;;;;;5009200;28;20423;-75
2023/11/23 09:14:38;;;;;;;;;;;9.30;99.90;;;;;;5009724;28;19917;-76
2023/11/23 09:17:03;;;;;;;;;;;9.40;99.90;;;;;;5008997;28;19980;-76
2023/11/23 09:19:29;;;;;;;;;;;9.50;99.90;;;;;;5007822;28;19933;-76
2023/11/23 09:21:54;;;;;;;;;;;9.60;99.90;;;;;;5006668;28;19913;-74
2023/11/23 09:24:21;;;;;;;;;;;9.60;99.90;;;;;;5007538;28;19921;-74
2023/11/23 09:26:47;;;;;;;;;;;9.80;99.90;;;;;;5008837;28;19917;-75
2023/11/23 09:29:12;;;;;;;;;;;9.90;99.90;;;;;;5007483;28;19918;-74
2023/11/23 09:31:38;;;;;;;;;;;9.90;99.90;;;;;;5003048;28;20471;-78
2023/11/23 09:34:03;;;;;;;;;;;9.90;99.90;;;;;;5005257;28;19918;-78
2023/11/23 09:36:29;;;;;;;;;;;9.90;99.90;;;;;;4999192;28;20385;-74
2023/11/23 09:38:55;;;;;;;;;;;10.00;99.90;;;;;;5004198;28;19997;-75
2023/11/23 09:41:22;;;;;;;;;;;10.00;99.90;;;;;;5007443;28;19917;-74
2023/11/23 09:43:49;;;;;;;;;;;10.00;99.90;;;;;;5006209;28;19913;-78
2023/11/23 09:46:15;;;;;;;;;;;10.10;99.90;;;;;;5010231;28;19925;-78
2023/11/23 09:48:42;;;;;;;;;;;10.10;99.90;;;;;;5011006;28;19975;-75
2023/11/23 09:51:09;;;;;;;;;;;10.20;99.90;;;;;;5011339;28;19984;-75
2023/11/23 09:53:35;;;;;;;;;;;10.30;99.90;;;;;;5027441;28;20008;-74
2023/11/23 09:56:03;;;;;;;;;;;10.40;99.90;;;;;;5007973;28;19921;-74
2023/11/23 09:58:30;;;;;;;;;;;10.50;99.90;;;;;;5007401;28;19968;-78
2023/11/23 10:01:00;;;;;;;;;;;10.50;99.90;;;;;;5008493;28;19963;-79
2023/11/23 10:03:27;;;;;;;;;;;10.60;99.90;;;;;;5010046;28;20402;-75
2023/11/23 10:05:53;;;;;;;;;;;10.50;99.90;;;;;;5011204;28;19921;-75
2023/11/23 10:08:19;;;;;;;;;;;10.40;99.90;;;;;;5011248;28;19972;-74
2023/11/23 10:10:45;;;;;;;;;;;10.50;99.90;;;;;;5007072;28;19929;-80
2023/11/23 10:13:10;;;;;;;;;;;10.70;99.90;;;;;;5009543;28;19914;-78
2023/11/23 10:15:36;;;;;;;;;;;10.80;99.90;;;;;;5008844;28;20299;-78
2023/11/23 10:18:01;;;;;;;;;;;10.90;99.90;;;;;;5025447;28;19920;-79
2023/11/23 10:20:28;;;;;;;;;;;11.00;99.90;;;;;;5009832;28;19953;-75
2023/11/23 10:22:54;;;;;;;;;;;10.90;99.90;;;;;;5010118;28;19964;-78
2023/11/23 10:25:31;;;;;;;;;;;11.00;99.90;;;;;;5003077;28;19924;-78
2023/11/23 10:27:58;;;;;;;;;;;11.10;99.90;;;;;;5003168;28;19922;-75
2023/11/23 10:30:24;;;;;;;;;;;11.20;99.90;;;;;;5009687;28;19924;-78
2023/11/23 10:32:52;;;;;;;;;;;11.20;99.90;;;;;;5010466;28;19932;-79
2023/11/23 10:35:19;;;;;;;;;;;11.30;99.90;;;;;;5005912;28;19914;-74
2023/11/23 10:37:45;;;;;;;;;;;11.40;99.90;;;;;;5009759;28;19944;-78
2023/11/23 10:40:10;;;;;;;;;;;11.50;99.90;;;;;;5010382;28;19918;-78
2023/11/23 10:42:36;;;;;;;;;;;11.50;99.90;;;;;;5005902;28;19914;-74
2023/11/23 10:45:02;;;;;;;;;;;11.40;99.90;;;;;;5006953;28;19924;-75
2023/11/23 10:47:28;;;;;;;;;;;11.40;99.90;;;;;;5008768;28;19913;-79
2023/11/23 10:49:54;;;;;;;;;;;11.40;99.90;;;;;;5010026;28;19918;-78
2023/11/23 10:52:21;;;;;;;;;;;11.80;99.90;;;;;;5006868;28;20288;-80
2023/11/23 10:54:47;;;;;;;;;;;11.80;99.90;;;;;;5007521;28;19975;-76
2023/11/23 10:57:15;;;;;;;;;;;11.80;99.90;;;;;;5007425;28;20003;-76
2023/11/23 10:59:41;;;;;;;;;;;11.90;99.90;;;;;;5009873;28;19924;-77
2023/11/23 11:02:07;;;;;;;;;;;11.90;99.90;;;;;;5009818;28;19921;-79
2023/11/23 11:04:33;;;;;;;;;;;11.90;99.90;;;;;;5010111;28;20424;-79
2023/11/23 11:06:58;;;;;;;;;;;12.10;99.90;;;;;;5006912;28;19968;-76
2023/11/23 11:09:25;;;;;;;;;;;12.20;99.90;;;;;;4999007;28;20355;-76
2023/11/23 11:11:55;;;;;;;;;;;12.00;99.90;;;;;;5021742;28;20016;-78
2023/11/23 11:14:30;;;;;;;;;;;11.80;99.90;;;;;;5007744;28;19922;-78
2023/11/23 11:17:03;;;;;;;;;;;11.80;99.90;;;;;;5008263;28;19917;-76
2023/11/23 11:19:28;;;;;;;;;;;11.70;99.90;;;;;;5007970;28;20368;-78
2023/11/23 11:21:58;;;;;;;;;;;11.60;99.90;;;;;;5008766;28;19927;-75
2023/11/23 11:24:24;;;;;;;;;;;11.80;99.90;;;;;;5009161;28;19979;-76
2023/11/23 11:26:50;;;;;;;;;;;11.90;99.90;;;;;;5007018;28;19977;-78
2023/11/23 11:29:16;;;;;;;;;;;12.00;99.90;;;;;;4998955;28;19968;-78
2023/11/23 11:31:43;;;;;;;;;;;12.00;99.90;;;;;;5002901;28;19926;-78
2023/11/23 11:34:15;;;;;;;;;;;12.20;99.90;;;;;;5013127;28;20266;-74
2023/11/23 11:36:41;;;;;;;;;;;12.10;99.90;;;;;;5018301;28;20272;-78
2023/11/23 11:39:07;;;;;;;;;;;12.20;99.90;;;;;;5008204;28;19976;-75
2023/11/23 11:41:36;;;;;;;;;;;12.20;99.90;;;;;;5007839;28;20272;-78
2023/11/23 11:44:04;;;;;;;;;;;12.20;99.90;;;;;;5006863;28;19913;-78
2023/11/23 11:46:35;;;;;;;;;;;12.10;99.90;;;;;;5007434;28;19979;-74
2023/11/23 11:49:01;;;;;;;;;;;12.10;99.90;;;;;;5010980;28;19998;-78
2023/11/23 11:51:27;;;;;;;;;;;12.10;99.90;;;;;;4993458;28;20007;-75
2023/11/23 11:53:53;;;;;;;;;;;11.90;99.90;;;;;;4997027;28;20008;-78
2023/11/23 11:56:19;;;;;;;;;;;12.00;99.90;;;;;;4999853;28;20408;-78
2023/11/23 11:58:44;;;;;;;;;;;11.90;99.90;;;;;;4992986;28;19969;-74
2023/11/23 12:01:10;;;;;;;;;;;12.00;99.90;;;;;;5004628;28;20008;-75
2023/11/23 12:03:35;;;;;;;;;;;11.90;99.90;;;;;;5002785;28;20380;-79
2023/11/23 12:06:02;;;;;;;;;;;11.90;99.90;;;;;;5007360;28;19921;-75
2023/11/23 12:08:33;;;;;;;;;;;12.10;99.90;;;;;;5005108;28;19918;-80
2023/11/23 12:10:58;;;;;;;;;;;12.20;99.90;;;;;;5019547;28;19981;-79
2023/11/23 12:13:25;;;;;;;;;;;12.20;99.90;;;;;;4996980;28;20292;-76
2023/11/23 12:15:54;;;;;;;;;;;12.30;99.90;;;;;;5001234;28;20000;-74
2023/11/23 12:18:35;;;;;;;;;;;12.50;99.90;;;;;;5005771;28;19937;-78
2023/11/23 12:21:01;;;;;;;;;;;12.50;99.90;;;;;;5002230;28;20564;-80
2023/11/23 12:23:26;;;;;;;;;;;12.40;99.90;;;;;;5003247;28;20294;-79
2023/11/23 12:25:53;;;;;;;;;;;12.20;99.90;;;;;;5000487;28;19924;-74
2023/11/23 12:28:20;;;;;;;;;;;12.10;99.90;;;;;;5004490;28;19924;-73
2023/11/23 12:30:46;;;;;;;;;;;12.20;99.90;;;;;;5002216;28;19918;-78
2023/11/23 12:33:12;;;;;;;;;;;12.10;99.90;;;;;;5012278;28;19959;-80
2023/11/23 12:35:38;;;;;;;;;;;12.10;99.90;;;;;;5006260;28;19910;-79
2023/11/23 12:38:05;;;;;;;;;;;12.00;99.90;;;;;;5008887;28;19961;-75
2023/11/23 12:40:30;;;;;;;;;;;12.00;99.90;;;;;;5006594;28;19921;-75
2023/11/23 12:42:56;;;;;;;;;;;12.10;99.90;;;;;;5003806;28;19917;-73
2023/11/23 12:45:21;;;;;;;;;;;12.20;99.90;;;;;;5001230;28;20388;-79
2023/11/23 12:47:47;;;;;;;;;;;12.30;99.90;;;;;;5011229;28;19914;-79
2023/11/23 12:50:13;;;;;;;;;;;12.20;99.90;;;;;;5004605;28;20365;-76
2023/11/23 12:52:39;;;;;;;;;;;12.10;99.90;;;;;;4998563;28;19964;-73
2023/11/23 12:55:08;;;;;;;;;;;12.30;99.90;;;;;;5010456;28;19948;-74
2023/11/23 12:57:33;;;;;;;;;;;12.30;99.90;;;;;;5002468;28;20000;-75
2023/11/23 13:00:00;;;;;;;;;;;12.20;99.90;;;;;;5006957;28;20017;-79
2023/11/23 13:02:25;;;;;;;;;;;12.20;99.90;;;;;;5006612;28;19976;-78
2023/11/23 13:04:51;;;;;;;;;;;12.20;99.90;;;;;;5004545;28;19926;-79
2023/11/23 13:07:16;;;;;;;;;;;12.20;99.90;;;;;;5018971;28;20304;-74
2023/11/23 13:09:42;;;;;;;;;;;12.20;99.90;;;;;;5006041;28;20296;-74
2023/11/23 13:12:09;;;;;;;;;;;12.20;99.90;;;;;;5005904;28;19913;-79
2023/11/23 13:14:34;;;;;;;;;;;12.10;99.90;;;;;;4993287;28;19972;-75
2023/11/23 13:17:00;;;;;;;;;;;12.20;99.90;;;;;;5009731;28;19914;-74
2023/11/23 13:19:26;;;;;;;;;;;12.10;99.90;;;;;;5009810;28;19925;-74
2023/11/23 13:21:52;;;;;;;;;;;12.10;99.90;;;;;;5013826;28;19914;-74
2023/11/23 13:24:18;;;;;;;;;;;12.10;99.90;;;;;;5014233;28;20380;-76
2023/11/23 13:26:43;;;;;;;;;;;12.10;99.90;;;;;;5006531;28;19917;-80
2023/11/23 13:29:10;;;;;;;;;;;12.20;99.90;;;;;;5010433;28;20351;-78
2023/11/23 13:31:35;;;;;;;;;;;12.20;99.90;;;;;;5005173;28;20130;-74
2023/11/23 13:34:01;;;;;;;;;;;12.20;99.90;;;;;;5009078;28;19914;-74
2023/11/23 13:36:28;;;;;;;;;;;12.00;99.90;;;;;;5003900;28;19922;-74
2023/11/23 13:38:53;;;;;;;;;;;12.00;99.90;;;;;;4997433;28;20304;-78
2023/11/23 13:41:19;;;;;;;;;;;12.00;99.90;;;;;;5016717;28;19924;-80
2023/11/23 13:43:45;;;;;;;;;;;12.00;99.90;;;;;;5001811;28;19924;-73
2023/11/23 13:46:11;;;;;;;;;;;12.00;99.90;;;;;;5003010;28;20322;-80
2023/11/23 13:48:36;;;;;;;;;;;12.00;99.90;;;;;;5001995;28;19914;-75
2023/11/23 13:51:03;;;;;;;;;;;12.00;99.90;;;;;;5006576;28;19957;-74
2023/11/23 13:53:29;;;;;;;;;;;12.00;99.90;;;;;;5011042;28;20316;-81
2023/11/23 13:55:56;;;;;;;;;;;12.10;99.90;;;;;;5013283;28;19959;-75
2023/11/23 13:58:22;;;;;;;;;;;12.10;99.90;;;;;;5010720;28;19917;-75
2023/11/23 14:00:47;;;;;;;;;;;12.20;99.90;;;;;;5008185;28;19917;-75
2023/11/23 14:03:14;;;;;;;;;;;12.30;99.90;;;;;;5010535;28;19924;-75
2023/11/23 14:05:40;;;;;;;;;;;12.30;99.90;;;;;;5009801;28;20411;-81
2023/11/23 14:08:06;;;;;;;;;;;12.30;99.90;;;;;;5008456;28;19922;-81
2023/11/23 14:10:32;;;;;;;;;;;12.30;99.90;;;;;;5012325;28;19986;-74
2023/11/23 14:12:58;;;;;;;;;;;12.30;99.90;;;;;;5007713;28;19952;-75
2023/11/23 14:15:25;;;;;;;;;;;12.20;99.90;;;;;;5010398;28;19945;-75
2023/11/23 14:17:50;;;;;;;;;;;12.30;99.90;;;;;;5011771;28;19921;-80
2023/11/23 14:20:16;;;;;;;;;;;12.20;99.90;;;;;;5010456;28;19984;-82